ELLX 200050Z AUTO 05005KT 9999 FEW083/// 16/15 Q1021 TEMPO TSRA SHRA SCT050CB ELLX 200020Z AUTO 04006KT 9999 -SHRA BKN085/// 16/15 Q1021 TEMPO TSRA SHRA SCT050CB ELLX 192350Z 03007KT CAVOK 17/15 Q1022 TEMPO SHRA SCT050CB ELLX 192320Z AUTO 03007KT 9999 SCT049/// BKN054/// OVC088/// 17/15 Q1022 NOSIG ELLX 192250Z AUTO 05005KT 9999 OVC051/// 17/15 Q1022 NOSIG ELLX 192220Z AUTO 05007KT 9999 OVC054/// 18/15 Q1022 NOSIG ELLX 192150Z 05008KT CAVOK 16/15 Q1022 NOSIG ELLX 192120Z 06006KT CAVOK 17/15 Q1022 NOSIG ELLX 192050Z 06008KT CAVOK 18/15 Q1022 NOSIG ELLX 192020Z 06008KT 040V110 CAVOK 18/15 Q1021 NOSIG ELLX 191950Z 05010KT CAVOK 19/16 Q1021 NOSIG ELLX 191920Z 04008KT 9999 FEW050CB 19/16 Q1021 NOSIG ELLX 191850Z 04009KT 9999 FEW060CB 20/16 Q1021 NOSIG ELLX 191820Z 03008KT 360V060 9999 FEW060CB 21/17 Q1021 NOSIG ELLX 191750Z 36008KT 260V030 9999 FEW060CB 21/17 Q1020 NOSIG ELLX 191720Z 36008KT 330V030 9999 FEW052CB 22/17 Q1020 NOSIG ELLX 191650Z 34008KT 290V010 9999 FEW050CB 22/17 Q1020 NOSIG ELLX 191620Z 31009KT 9999 FEW040 FEW050CB 23/17 Q1019 RESHRA NOSIG ELLX 191550Z 31010KT 9999 -SHRA SCT050CB 24/16 Q1019 RESHRA TEMPO 30015G25KT 5000 -TSRA BKN030CB ELLX 191520Z 31010KT 280V340 9999 TS SCT054CB 25/16 Q1019 TEMPO 27020G35KT 5000 TSRAGR SCT015 BKN030CB ELLX 191450Z 23013KT 9999 VCSH FEW054 FEW056CB 27/15 Q1019 NOSIG ELLX 191420Z 22017KT 9999 FEW055CB 28/15 Q1018 NOSIG ELLX 191350Z 24017KT 9999 FEW049 29/15 Q1018 NOSIG ELLX 191320Z 22014KT 9999 FEW047 FEW050TCU 28/15 Q1019 NOSIG ELLX 191250Z 20013KT 150V250 9999 FEW036 FEW040TCU 27/17 Q1019 NOSIG ELLX 191220Z 19010KT 150V230 9999 FEW035 27/17 Q1019 NOSIG ELLX 191150Z 19009KT 160V230 9999 FEW035 26/17 Q1019 NOSIG ELLX 191120Z 20009KT 170V240 9999 FEW035 25/17 Q1019 TEMPO FEW035TCU ELLX 191050Z 19008KT 150V210 CAVOK 24/17 Q1019 TEMPO FEW035TCU ELLX 191020Z 20007KT 160V240 CAVOK 23/17 Q1020 TEMPO FEW035TCU ELLX 190950Z 18007KT 150V230 9999 FEW035TCU 22/18 Q1019 RESHRA TEMPO FEW035TCU ELLX 190920Z 18005KT 140V240 9999 FEW035CB 19/16 Q1020 TEMPO 3000 TSRAGR SCT025CB ELLX 190850Z 17009KT 9999 VCTS FEW035CB 22/14 Q1020 TEMPO 4000 TSRA SCT025CB ELLX 190820Z 17010KT 140V210 CAVOK 22/13 Q1020 NOSIG ELLX 190750Z 18008KT 140V200 CAVOK 21/13 Q1020 NOSIG ELLX 190720Z 16007KT 120V200 CAVOK 21/13 Q1020 NOSIG ELLX 190650Z 14007KT CAVOK 21/13 Q1020 NOSIG ELLX 190620Z 15005KT 120V180 CAVOK 20/12 Q1020 NOSIG ELLX 190550Z 11003KT 080V140 CAVOK 21/12 Q1019 NOSIG ELLX 190520Z 10004KT CAVOK 18/12 Q1019 NOSIG ELLX 190450Z AUTO 12004KT 9999 NCD 17/12 Q1019 NOSIG ELLX 190420Z 16002KT CAVOK 17/11 Q1019 NOSIG ELLX 190350Z VRB02KT CAVOK 17/11 Q1019 NOSIG ELLX 190320Z 12004KT CAVOK 17/11 Q1019 NOSIG ELLX 190250Z 10004KT CAVOK 18/11 Q1019 NOSIG ELLX 190220Z AUTO 10005KT 9000 NCD 19/11 Q1019 NOSIG ELLX 190150Z AUTO 11005KT 9999 NCD 19/11 Q1019 NOSIG ELLX 190120Z AUTO 12005KT 9999 NCD 19/11 Q1019 NOSIG ELLX 190050Z AUTO 10006KT 9999 NCD 20/11 Q1019 NOSIG ELLX 190020Z AUTO 10008KT 9999 NCD 20/11 Q1019 NOSIG ELLX 182350Z AUTO 10007KT 9999 NCD 20/11 Q1019 NOSIG ELLX 182320Z 08006KT 050V110 CAVOK 20/11 Q1020 NOSIG ELLX 182250Z 09006KT CAVOK 20/11 Q1020 NOSIG ELLX 182220Z 09005KT 9000 NSC 20/11 Q1020 NOSIG ELLX 182150Z 09005KT CAVOK 20/12 Q1020 NOSIG ELLX 182120Z 10006KT CAVOK 20/12 Q1020 NOSIG ELLX 182050Z 11006KT CAVOK 20/12 Q1020 NOSIG ELLX 182020Z 11004KT CAVOK 21/12 Q1020 NOSIG ELLX 181950Z 08005KT CAVOK 23/12 Q1020 NOSIG ELLX 181920Z 09004KT CAVOK 22/12 Q1020 NOSIG ELLX 181850Z 09004KT CAVOK 23/13 Q1020 NOSIG ELLX 181820Z 10004KT CAVOK 24/13 Q1020 NOSIG ELLX 181750Z 10004KT CAVOK 26/13 Q1020 NOSIG ELLX 181720Z 11005KT CAVOK 26/12 Q1020 NOSIG ELLX 181650Z 10005KT 030V120 CAVOK 27/12 Q1020 NOSIG ELLX 181620Z 11005KT 070V170 CAVOK 27/11 Q1020 NOSIG ELLX 181550Z 09004KT 020V150 CAVOK 28/11 Q1020 NOSIG ELLX 181520Z VRB04KT CAVOK 28/11 Q1021 NOSIG ELLX 181450Z 19005KT 150V220 CAVOK 27/10 Q1021 NOSIG ELLX 181420Z 16006KT 100V210 CAVOK 28/10 Q1021 NOSIG ELLX 181350Z VRB05KT CAVOK 28/11 Q1021 NOSIG ELLX 181320Z 15005KT 060V230 CAVOK 28/10 Q1021 NOSIG

METAR Messwerte "LUXEMBOURG (AUT)" ELLX

Zurück zur Übersicht

Ortsname
Ländercode / m ü. NN
Zeit Temperatur Taupunkt Rel.
Luftfeuchte
Luftdruck:
Altimeter
NN
Station
Wind in Beaufort
(Knoten)
Sichtweite
(Meter)
Wolken
(Meter über Grund)
Wettererscheinung
LUXEMBOURG (AUT)
LU 374
Fr 20.05. 02:50161594 %1021
1021
977
NO 2 (5)>= 10000Leicht bewölkt (2500) Bald zeitweise: Gewitter mit Regen
Regen-Schauer
LUXEMBOURG (AUT)
LU 374
Fr 20.05. 02:20161594 %1021
1021
977
NO 2 (6)>= 10000Stark bewölkt (2600)Regen-Schauer (schwach)
Bald zeitweise: Gewitter mit Regen
Regen-Schauer
LUXEMBOURG (AUT)
LU 374
Fr 20.05. 01:50171588 %1022
1022
978
NNO 3 (7)>= 10000Nicht signifikant Bald zeitweise: Regen-Schauer
LUXEMBOURG (AUT)
LU 374
Fr 20.05. 01:20171588 %1022
1022
978
NNO 3 (7)>= 10000Bedeckt (2700)
Stark bewölkt (1600)
Wolkig (1500)
 
LUXEMBOURG (AUT)
LU 374
Fr 20.05. 00:50171588 %1022
1022
978
NO 2 (5)>= 10000Bedeckt (1600) 
LUXEMBOURG (AUT)
LU 374
Fr 20.05. 00:20181583 %1022
1022
978
NO 3 (7)>= 10000Bedeckt (1600) 
LUXEMBOURG (AUT)
LU 374
Do 19.05. 23:50161594 %1022
1022
978
NO 3 (8)>= 10000Nicht signifikant 
LUXEMBOURG (AUT)
LU 374
Do 19.05. 23:20171588 %1022
1022
978
ONO 2 (6)>= 10000Nicht signifikant 
LUXEMBOURG (AUT)
LU 374
Do 19.05. 22:50181583 %1022
1022
978
ONO 3 (8)>= 10000Nicht signifikant 
LUXEMBOURG (AUT)
LU 374
Do 19.05. 22:20181583 %1021
1021
977
ONO 3 (8)
NO - OSO
>= 10000Nicht signifikant 
LUXEMBOURG (AUT)
LU 374
Do 19.05. 21:50191683 %1021
1020
977
NO 3 (10)>= 10000Nicht signifikant 
LUXEMBOURG (AUT)
LU 374
Do 19.05. 21:20191683 %1021
1020
977
NO 3 (8)>= 10000Leicht bewölkt Cb (1500) 
LUXEMBOURG (AUT)
LU 374
Do 19.05. 20:50201678 %1021
1020
977
NO 3 (9)>= 10000Leicht bewölkt Cb (1800) 
LUXEMBOURG (AUT)
LU 374
Do 19.05. 20:20211778 %1021
1020
977
NNO 3 (8)
N - ONO
>= 10000Leicht bewölkt Cb (1800) 
LUXEMBOURG (AUT)
LU 374
Do 19.05. 19:50211778 %1020
1019
976
N 3 (8)
W - NNO
>= 10000Leicht bewölkt Cb (1800) 
LUXEMBOURG (AUT)
LU 374
Do 19.05. 19:20221773 %1020
1019
976
N 3 (8)
NNW - NNO
>= 10000Leicht bewölkt Cb (1600) 
LUXEMBOURG (AUT)
LU 374
Do 19.05. 18:50221773 %1020
1019
976
NNW 3 (8)
WNW - N
>= 10000Leicht bewölkt Cb (1500) 
LUXEMBOURG (AUT)
LU 374
Do 19.05. 18:20231769 %1019
1018
975
NW 3 (9)>= 10000Leicht bewölkt Cb (1500)
Leicht bewölkt (1200)
 
LUXEMBOURG (AUT)
LU 374
Do 19.05. 17:50241661 %1019
1018
975
NW 3 (10)
Bald zeitweise:
WNW 4 (15) - 6 (25)
>= 10000
Bald zeitweise: 5000
Wolkig Cb (1500)Regen-Schauer (schwach)
Bald zeitweise: Gewitter mit Regen (schwach)
LUXEMBOURG (AUT)
LU 374
Do 19.05. 17:20251657 %1019
1018
975
NW 3 (10)
W - NNW
Bald zeitweise:
W 5 (20) - 8 (35)
>= 10000
Bald zeitweise: 5000
Wolkig Cb (1600) Bald zeitweise: Gewitter mit Regen/Hagel
LUXEMBOURG (AUT)
LU 374
Do 19.05. 16:50271548 %1019
1017
975
SW 4 (13)>= 10000Leicht bewölkt Cb (1700)
Leicht bewölkt (1600)
 
LUXEMBOURG (AUT)
LU 374
Do 19.05. 16:20281545 %1018
1016
974
SW 5 (17)>= 10000Leicht bewölkt Cb (1700) 
LUXEMBOURG (AUT)
LU 374
Do 19.05. 15:50291543 %1018
1016
974
WSW 5 (17)>= 10000Leicht bewölkt (1500) 
LUXEMBOURG (AUT)
LU 374
Do 19.05. 15:20281545 %1019
1017
975
SW 4 (14)>= 10000Leicht bewölkt (1500)
Leicht bewölkt (1400)
 
LUXEMBOURG (AUT)
LU 374
Do 19.05. 14:50271754 %1019
1017
975
SSW 4 (13)
SSO - WSW
>= 10000Leicht bewölkt (1200)
Leicht bewölkt (1100)
 
LUXEMBOURG (AUT)
LU 374
Do 19.05. 14:20271754 %1019
1017
975
S 3 (10)
SSO - SW
>= 10000Leicht bewölkt (1100) 
LUXEMBOURG (AUT)
LU 374
Do 19.05. 13:50261758 %1019
1017
975
S 3 (9)
SSO - SW
>= 10000Leicht bewölkt (1100) 
LUXEMBOURG (AUT)
LU 374
Do 19.05. 13:20251761 %1019
1018
975
SSW 3 (9)
S - WSW
>= 10000Leicht bewölkt (1100) 
LUXEMBOURG (AUT)
LU 374
Do 19.05. 12:50241765 %1019
1018
975
S 3 (8)
SSO - SSW
>= 10000Nicht signifikant 
LUXEMBOURG (AUT)
LU 374
Do 19.05. 12:20231769 %1020
1019
976
SSW 3 (7)
SSO - WSW
>= 10000Nicht signifikant 
LUXEMBOURG (AUT)
LU 374
Do 19.05. 11:50221878 %1019
1018
975
S 3 (7)
SSO - SW
>= 10000Leicht bewölkt (1100) 
LUXEMBOURG (AUT)
LU 374
Do 19.05. 11:20191683 %1020
1019
976
S 2 (5)
SO - WSW
>= 10000
Bald zeitweise: 3000
Leicht bewölkt Cb (1100) Bald zeitweise: Gewitter mit Regen/Hagel
LUXEMBOURG (AUT)
LU 374
Do 19.05. 10:50221460 %1020
1019
976
S 3 (9)>= 10000
Bald zeitweise: 4000
Leicht bewölkt Cb (1100) Bald zeitweise: Gewitter mit Regen
LUXEMBOURG (AUT)
LU 374
Do 19.05. 10:20221357 %1020
1019
976
S 3 (10)
SO - SSW
>= 10000Nicht signifikant 
LUXEMBOURG (AUT)
LU 374
Do 19.05. 09:50211360 %1020
1019
976
S 3 (8)
SO - SSW
>= 10000Nicht signifikant 
LUXEMBOURG (AUT)
LU 374
Do 19.05. 09:20211360 %1020
1019
976
SSO 3 (7)
OSO - SSW
>= 10000Nicht signifikant 
LUXEMBOURG (AUT)
LU 374
Do 19.05. 08:50211360 %1020
1019
976
SO 3 (7)>= 10000Nicht signifikant 
LUXEMBOURG (AUT)
LU 374
Do 19.05. 08:20201260 %1020
1019
976
SSO 2 (5)
OSO - S
>= 10000Nicht signifikant 
LUXEMBOURG (AUT)
LU 374
Do 19.05. 07:50211256 %1019
1018
975
OSO 2 (3)
O - SO
>= 10000Nicht signifikant 
LUXEMBOURG (AUT)
LU 374
Do 19.05. 07:20181268 %1019
1019
975
O 2 (4)>= 10000Nicht signifikant 
LUXEMBOURG (AUT)
LU 374
Do 19.05. 06:50171272 %1019
1019
975
OSO 2 (4)>= 10000  
LUXEMBOURG (AUT)
LU 374
Do 19.05. 06:20171168 %1019
1019
975
SSO 1 (2)>= 10000Nicht signifikant 
LUXEMBOURG (AUT)
LU 374
Do 19.05. 05:50171168 %1019
1019
975
Uml 1 (2)>= 10000Nicht signifikant 
LUXEMBOURG (AUT)
LU 374
Do 19.05. 05:20171168 %1019
1019
975
OSO 2 (4)>= 10000Nicht signifikant 
LUXEMBOURG (AUT)
LU 374
Do 19.05. 04:50181164 %1019
1019
975
O 2 (4)>= 10000Nicht signifikant 
LUXEMBOURG (AUT)
LU 374
Do 19.05. 04:20191160 %1019
1018
975
O 2 (5)9000  
LUXEMBOURG (AUT)
LU 374
Do 19.05. 03:50191160 %1019
1018
975
OSO 2 (5)>= 10000  
LUXEMBOURG (AUT)
LU 374
Do 19.05. 03:20191160 %1019
1018
975
OSO 2 (5)>= 10000  
LUXEMBOURG (AUT)
LU 374
Do 19.05. 02:50201156 %1019
1018
975
O 2 (6)>= 10000  
LUXEMBOURG (AUT)
LU 374
Do 19.05. 02:20201156 %1019
1018
975
O 3 (8)>= 10000  
LUXEMBOURG (AUT)
LU 374
Do 19.05. 01:50201156 %1019
1018
975
O 3 (7)>= 10000  
LUXEMBOURG (AUT)
LU 374
Do 19.05. 01:20201156 %1020
1019
976
O 2 (6)
NO - OSO
>= 10000Nicht signifikant 
LUXEMBOURG (AUT)
LU 374
Do 19.05. 00:50201156 %1020
1019
976
O 2 (6)>= 10000Nicht signifikant 
LUXEMBOURG (AUT)
LU 374
Do 19.05. 00:20201156 %1020
1019
976
O 2 (5)9000Nicht signifikant 
LUXEMBOURG (AUT)
LU 374
Mi 18.05. 23:50201260 %1020
1019
976
O 2 (5)>= 10000Nicht signifikant 
LUXEMBOURG (AUT)
LU 374
Mi 18.05. 23:20201260 %1020
1019
976
O 2 (6)>= 10000Nicht signifikant 
LUXEMBOURG (AUT)
LU 374
Mi 18.05. 22:50201260 %1020
1019
976
OSO 2 (6)>= 10000Nicht signifikant 
LUXEMBOURG (AUT)
LU 374
Mi 18.05. 22:20211256 %1020
1019
976
OSO 2 (4)>= 10000Nicht signifikant 
LUXEMBOURG (AUT)
LU 374
Mi 18.05. 21:50231250 %1020
1019
976
O 2 (5)>= 10000Nicht signifikant 
LUXEMBOURG (AUT)
LU 374
Mi 18.05. 21:20221253 %1020
1019
976
O 2 (4)>= 10000Nicht signifikant 
LUXEMBOURG (AUT)
LU 374
Mi 18.05. 20:50231353 %1020
1019
976
O 2 (4)>= 10000Nicht signifikant 
LUXEMBOURG (AUT)
LU 374
Mi 18.05. 20:20241350 %1020
1019
976
O 2 (4)>= 10000Nicht signifikant 
LUXEMBOURG (AUT)
LU 374
Mi 18.05. 19:50261345 %1020
1018
976
O 2 (4)>= 10000Nicht signifikant 
LUXEMBOURG (AUT)
LU 374
Mi 18.05. 19:20261242 %1020
1018
976
OSO 2 (5)>= 10000Nicht signifikant 
LUXEMBOURG (AUT)
LU 374
Mi 18.05. 18:50271239 %1020
1018
976
O 2 (5)
NNO - OSO
>= 10000Nicht signifikant 
LUXEMBOURG (AUT)
LU 374
Mi 18.05. 18:20271137 %1020
1018
976
OSO 2 (5)
ONO - S
>= 10000Nicht signifikant 
LUXEMBOURG (AUT)
LU 374
Mi 18.05. 17:50281135 %1020
1018
976
O 2 (4)
NNO - SSO
>= 10000Nicht signifikant 
LUXEMBOURG (AUT)
LU 374
Mi 18.05. 17:20281135 %1021
1019
977
Uml 2 (4)>= 10000Nicht signifikant 
LUXEMBOURG (AUT)
LU 374
Mi 18.05. 16:50271034 %1021
1019
977
S 2 (5)
SSO - SW
>= 10000Nicht signifikant 
LUXEMBOURG (AUT)
LU 374
Mi 18.05. 16:20281032 %1021
1019
977
SSO 2 (6)
O - SSW
>= 10000Nicht signifikant 
LUXEMBOURG (AUT)
LU 374
Mi 18.05. 15:50281135 %1021
1019
977
Uml 2 (5)>= 10000Nicht signifikant 
LUXEMBOURG (AUT)
LU 374
Mi 18.05. 15:20281032 %1021
1019
977
SSO 2 (5)
ONO - SW
>= 10000Nicht signifikant 

Altimeter: Einstellung am Altimeter (Höhenmesser), die Höhe 0 muss auf diesen Luftdruckwert zeigen, damit das Gerät die Stationshöhe richtig anzeigt.

NN: Luftdruck reduziert auf "Normal Null", auf Meereshöhe, dieser von der Temperatur abhängige Wert wird bisweilen unkorrekt einfach als "Luftdruck" bezeichnet. Eigentlich nur eine fiktive Größe, die es erlaubt, Stationen auf unterschiedlichen Höhen miteinander zu vergleichen.

Station: Realer Luftdruck an der Station.